sensor_id;sensor_type;location;lat;lon;timestamp;temperature;humidity
54168;DHT22;40072;50.958;3.592;2023-02-12T00:00:39;8.80;99.90
54168;DHT22;40072;50.958;3.592;2023-02-12T00:03:05;8.90;99.90
54168;DHT22;40072;50.958;3.592;2023-02-12T00:05:30;8.90;99.90
54168;DHT22;40072;50.958;3.592;2023-02-12T00:07:56;8.50;99.90
54168;DHT22;40072;50.958;3.592;2023-02-12T00:10:22;8.50;99.90
54168;DHT22;40072;50.958;3.592;2023-02-12T00:12:48;8.60;99.90
54168;DHT22;40072;50.958;3.592;2023-02-12T00:15:14;8.60;99.90
54168;DHT22;40072;50.958;3.592;2023-02-12T00:17:40;8.60;99.90
54168;DHT22;40072;50.958;3.592;2023-02-12T00:20:06;8.50;99.90
54168;DHT22;40072;50.958;3.592;2023-02-12T00:22:32;8.70;99.90
54168;DHT22;40072;50.958;3.592;2023-02-12T00:24:58;8.80;99.90
54168;DHT22;40072;50.958;3.592;2023-02-12T00:27:23;8.90;99.90
54168;DHT22;40072;50.958;3.592;2023-02-12T00:29:49;9.00;99.90
54168;DHT22;40072;50.958;3.592;2023-02-12T00:32:15;9.10;99.90
54168;DHT22;40072;50.958;3.592;2023-02-12T00:34:47;8.50;99.90
54168;DHT22;40072;50.958;3.592;2023-02-12T00:37:13;8.20;99.90
54168;DHT22;40072;50.958;3.592;2023-02-12T00:39:39;8.20;99.90
54168;DHT22;40072;50.958;3.592;2023-02-12T00:42:05;8.40;99.90
54168;DHT22;40072;50.958;3.592;2023-02-12T00:44:31;8.50;99.90
54168;DHT22;40072;50.958;3.592;2023-02-12T00:46:56;8.80;99.90
54168;DHT22;40072;50.958;3.592;2023-02-12T00:49:23;9.20;99.90
54168;DHT22;40072;50.958;3.592;2023-02-12T00:51:49;9.00;99.90
54168;DHT22;40072;50.958;3.592;2023-02-12T00:54:15;8.50;99.90
54168;DHT22;40072;50.958;3.592;2023-02-12T00:56:40;8.40;99.90
54168;DHT22;40072;50.958;3.592;2023-02-12T00:59:06;8.50;99.90
54168;DHT22;40072;50.958;3.592;2023-02-12T01:01:32;8.20;99.90
54168;DHT22;40072;50.958;3.592;2023-02-12T01:03:58;8.10;99.90
54168;DHT22;40072;50.958;3.592;2023-02-12T01:06:24;8.10;99.90
54168;DHT22;40072;50.958;3.592;2023-02-12T01:08:51;8.00;99.90
54168;DHT22;40072;50.958;3.592;2023-02-12T01:11:17;7.80;99.90
54168;DHT22;40072;50.958;3.592;2023-02-12T01:13:43;8.20;99.90
54168;DHT22;40072;50.958;3.592;2023-02-12T01:16:18;8.20;99.90
54168;DHT22;40072;50.958;3.592;2023-02-12T01:18:44;7.90;99.90
54168;DHT22;40072;50.958;3.592;2023-02-12T01:21:16;8.10;99.90
54168;DHT22;40072;50.958;3.592;2023-02-12T01:23:42;8.30;99.90
54168;DHT22;40072;50.958;3.592;2023-02-12T01:26:08;8.40;99.90
54168;DHT22;40072;50.958;3.592;2023-02-12T01:28:36;8.40;99.90
54168;DHT22;40072;50.958;3.592;2023-02-12T01:31:07;8.80;99.90
54168;DHT22;40072;50.958;3.592;2023-02-12T01:33:33;8.80;99.90
54168;DHT22;40072;50.958;3.592;2023-02-12T01:35:59;8.60;99.90
54168;DHT22;40072;50.958;3.592;2023-02-12T01:38:24;8.70;99.90
54168;DHT22;40072;50.958;3.592;2023-02-12T01:40:50;8.80;99.90
54168;DHT22;40072;50.958;3.592;2023-02-12T01:43:15;8.90;99.90
54168;DHT22;40072;50.958;3.592;2023-02-12T01:45:50;8.90;99.90
54168;DHT22;40072;50.958;3.592;2023-02-12T01:48:18;8.80;99.90
54168;DHT22;40072;50.958;3.592;2023-02-12T01:50:47;8.80;99.90
54168;DHT22;40072;50.958;3.592;2023-02-12T01:53:14;8.70;99.90
54168;DHT22;40072;50.958;3.592;2023-02-12T01:55:46;8.40;99.90
54168;DHT22;40072;50.958;3.592;2023-02-12T01:58:12;8.50;99.90
54168;DHT22;40072;50.958;3.592;2023-02-12T02:00:38;8.40;99.90
54168;DHT22;40072;50.958;3.592;2023-02-12T02:03:04;8.30;99.90
54168;DHT22;40072;50.958;3.592;2023-02-12T02:08:40;8.50;99.90
54168;DHT22;40072;50.958;3.592;2023-02-12T02:11:06;8.80;99.90
54168;DHT22;40072;50.958;3.592;2023-02-12T02:13:53;8.50;99.90
54168;DHT22;40072;50.958;3.592;2023-02-12T02:16:41;8.40;99.90
54168;DHT22;40072;50.958;3.592;2023-02-12T02:19:44;8.60;99.90
54168;DHT22;40072;50.958;3.592;2023-02-12T02:22:36;8.30;99.90
54168;DHT22;40072;50.958;3.592;2023-02-12T02:39:19;8.60;99.90
54168;DHT22;40072;50.958;3.592;2023-02-12T02:42:19;8.90;99.90
54168;DHT22;40072;50.958;3.592;2023-02-12T02:44:53;9.30;99.90
54168;DHT22;40072;50.958;3.592;2023-02-12T02:47:23;8.70;99.90
54168;DHT22;40072;50.958;3.592;2023-02-12T02:49:54;8.50;99.90
54168;DHT22;40072;50.958;3.592;2023-02-12T02:52:38;8.50;99.90
54168;DHT22;40072;50.958;3.592;2023-02-12T02:55:08;8.50;99.90
54168;DHT22;40072;50.958;3.592;2023-02-12T02:57:45;8.60;99.90
54168;DHT22;40072;50.958;3.592;2023-02-12T03:02:52;8.70;99.90
54168;DHT22;40072;50.958;3.592;2023-02-12T03:05:29;9.00;99.90
54168;DHT22;40072;50.958;3.592;2023-02-12T03:08:36;9.00;99.90
54168;DHT22;40072;50.958;3.592;2023-02-12T03:11:16;9.10;99.90
54168;DHT22;40072;50.958;3.592;2023-02-12T03:14:11;8.90;99.90
54168;DHT22;40072;50.958;3.592;2023-02-12T03:16:57;8.80;99.90
54168;DHT22;40072;50.958;3.592;2023-02-12T03:19:28;8.50;99.90
54168;DHT22;40072;50.958;3.592;2023-02-12T03:21:59;8.50;99.90
54168;DHT22;40072;50.958;3.592;2023-02-12T03:24:35;8.50;99.90
54168;DHT22;40072;50.958;3.592;2023-02-12T03:27:26;8.50;99.90
54168;DHT22;40072;50.958;3.592;2023-02-12T03:29:54;8.30;99.90
54168;DHT22;40072;50.958;3.592;2023-02-12T03:41:08;8.40;99.90
54168;DHT22;40072;50.958;3.592;2023-02-12T03:43:47;8.50;99.90
54168;DHT22;40072;50.958;3.592;2023-02-12T03:49:26;8.20;99.90
54168;DHT22;40072;50.958;3.592;2023-02-12T03:51:54;8.30;99.90
54168;DHT22;40072;50.958;3.592;2023-02-12T03:54:21;8.50;99.90
54168;DHT22;40072;50.958;3.592;2023-02-12T03:56:58;8.80;99.90
54168;DHT22;40072;50.958;3.592;2023-02-12T03:59:26;8.70;99.90
54168;DHT22;40072;50.958;3.592;2023-02-12T04:01:55;8.50;99.90
54168;DHT22;40072;50.958;3.592;2023-02-12T04:04:22;8.40;99.90
54168;DHT22;40072;50.958;3.592;2023-02-12T04:06:49;8.50;99.90
54168;DHT22;40072;50.958;3.592;2023-02-12T04:09:16;8.80;99.90
54168;DHT22;40072;50.958;3.592;2023-02-12T04:12:03;8.80;99.90
54168;DHT22;40072;50.958;3.592;2023-02-12T04:22:42;8.50;99.90
54168;DHT22;40072;50.958;3.592;2023-02-12T04:31:37;8.60;99.90
54168;DHT22;40072;50.958;3.592;2023-02-12T04:33:48;8.50;99.90
54168;DHT22;40072;50.958;3.592;2023-02-12T04:36:24;8.50;99.90
54168;DHT22;40072;50.958;3.592;2023-02-12T04:38:54;8.40;99.90
54168;DHT22;40072;50.958;3.592;2023-02-12T04:41:22;8.40;99.90
54168;DHT22;40072;50.958;3.592;2023-02-12T04:43:48;8.40;99.90
54168;DHT22;40072;50.958;3.592;2023-02-12T04:46:14;8.40;99.90
54168;DHT22;40072;50.958;3.592;2023-02-12T04:48:58;8.50;99.90
54168;DHT22;40072;50.958;3.592;2023-02-12T04:51:24;8.60;99.90
54168;DHT22;40072;50.958;3.592;2023-02-12T04:53:50;8.70;99.90
54168;DHT22;40072;50.958;3.592;2023-02-12T04:56:16;8.60;99.90
54168;DHT22;40072;50.958;3.592;2023-02-12T04:58:42;8.60;99.90
54168;DHT22;40072;50.958;3.592;2023-02-12T05:01:08;8.70;99.90
54168;DHT22;40072;50.958;3.592;2023-02-12T05:03:35;8.70;99.90
54168;DHT22;40072;50.958;3.592;2023-02-12T05:06:06;8.60;99.90
54168;DHT22;40072;50.958;3.592;2023-02-12T05:08:32;8.90;99.90
54168;DHT22;40072;50.958;3.592;2023-02-12T05:11:03;8.90;99.90
54168;DHT22;40072;50.958;3.592;2023-02-12T05:13:29;8.70;99.90
54168;DHT22;40072;50.958;3.592;2023-02-12T05:15:55;8.60;99.90
54168;DHT22;40072;50.958;3.592;2023-02-12T05:18:21;8.40;99.90
54168;DHT22;40072;50.958;3.592;2023-02-12T05:20:57;8.40;99.90
54168;DHT22;40072;50.958;3.592;2023-02-12T05:23:25;8.60;99.90
54168;DHT22;40072;50.958;3.592;2023-02-12T05:25:51;8.40;99.90
54168;DHT22;40072;50.958;3.592;2023-02-12T05:28:17;8.30;99.90
54168;DHT22;40072;50.958;3.592;2023-02-12T05:30:43;7.90;99.90
54168;DHT22;40072;50.958;3.592;2023-02-12T05:33:08;8.00;99.90
54168;DHT22;40072;50.958;3.592;2023-02-12T05:35:34;8.10;99.90
54168;DHT22;40072;50.958;3.592;2023-02-12T05:38:00;8.20;99.90
54168;DHT22;40072;50.958;3.592;2023-02-12T05:40:26;8.00;99.90
54168;DHT22;40072;50.958;3.592;2023-02-12T05:42:51;8.10;99.90
54168;DHT22;40072;50.958;3.592;2023-02-12T05:45:17;8.10;99.90
54168;DHT22;40072;50.958;3.592;2023-02-12T05:47:43;8.20;99.90
54168;DHT22;40072;50.958;3.592;2023-02-12T05:50:09;8.50;99.90
54168;DHT22;40072;50.958;3.592;2023-02-12T05:52:34;8.60;99.90
54168;DHT22;40072;50.958;3.592;2023-02-12T05:55:00;8.60;99.90
54168;DHT22;40072;50.958;3.592;2023-02-12T05:57:26;8.40;99.90
54168;DHT22;40072;50.958;3.592;2023-02-12T05:59:52;8.30;99.90
54168;DHT22;40072;50.958;3.592;2023-02-12T06:02:17;8.10;99.90
54168;DHT22;40072;50.958;3.592;2023-02-12T06:04:43;8.10;99.90
54168;DHT22;40072;50.958;3.592;2023-02-12T06:07:09;8.20;99.90
54168;DHT22;40072;50.958;3.592;2023-02-12T06:09:34;8.50;99.90
54168;DHT22;40072;50.958;3.592;2023-02-12T06:12:01;8.80;99.90
54168;DHT22;40072;50.958;3.592;2023-02-12T06:14:27;8.90;99.90
54168;DHT22;40072;50.958;3.592;2023-02-12T06:16:52;8.80;99.90
54168;DHT22;40072;50.958;3.592;2023-02-12T06:19:19;8.80;99.90
54168;DHT22;40072;50.958;3.592;2023-02-12T06:21:45;8.70;99.90
54168;DHT22;40072;50.958;3.592;2023-02-12T06:24:12;8.40;99.90
54168;DHT22;40072;50.958;3.592;2023-02-12T06:26:38;8.30;99.90
54168;DHT22;40072;50.958;3.592;2023-02-12T06:29:04;8.40;99.90
54168;DHT22;40072;50.958;3.592;2023-02-12T06:31:32;8.50;99.90
54168;DHT22;40072;50.958;3.592;2023-02-12T06:34:02;8.40;99.90
54168;DHT22;40072;50.958;3.592;2023-02-12T06:36:28;8.50;99.90
54168;DHT22;40072;50.958;3.592;2023-02-12T06:38:54;8.40;99.90
54168;DHT22;40072;50.958;3.592;2023-02-12T06:41:20;8.40;99.90
54168;DHT22;40072;50.958;3.592;2023-02-12T06:43:46;8.20;99.90
54168;DHT22;40072;50.958;3.592;2023-02-12T06:46:12;8.20;99.90
54168;DHT22;40072;50.958;3.592;2023-02-12T06:48:38;8.30;99.90
54168;DHT22;40072;50.958;3.592;2023-02-12T06:51:11;8.30;99.90
54168;DHT22;40072;50.958;3.592;2023-02-12T06:53:37;8.30;99.90
54168;DHT22;40072;50.958;3.592;2023-02-12T06:56:05;8.20;99.90
54168;DHT22;40072;50.958;3.592;2023-02-12T06:58:31;8.30;99.90
54168;DHT22;40072;50.958;3.592;2023-02-12T07:01:07;8.60;99.90
54168;DHT22;40072;50.958;3.592;2023-02-12T07:03:34;8.30;99.90
54168;DHT22;40072;50.958;3.592;2023-02-12T07:06:02;8.20;99.90
54168;DHT22;40072;50.958;3.592;2023-02-12T07:08:28;8.20;99.90
54168;DHT22;40072;50.958;3.592;2023-02-12T07:10:54;8.00;99.90
54168;DHT22;40072;50.958;3.592;2023-02-12T07:13:19;8.10;99.90
54168;DHT22;40072;50.958;3.592;2023-02-12T07:15:45;8.10;99.90
54168;DHT22;40072;50.958;3.592;2023-02-12T07:18:10;8.30;99.90
54168;DHT22;40072;50.958;3.592;2023-02-12T07:20:36;8.10;99.90
54168;DHT22;40072;50.958;3.592;2023-02-12T07:23:02;8.00;99.90
54168;DHT22;40072;50.958;3.592;2023-02-12T07:25:27;8.20;99.90
54168;DHT22;40072;50.958;3.592;2023-02-12T07:27:53;8.20;99.90
54168;DHT22;40072;50.958;3.592;2023-02-12T07:30:19;8.30;99.90
54168;DHT22;40072;50.958;3.592;2023-02-12T07:32:44;8.40;99.90
54168;DHT22;40072;50.958;3.592;2023-02-12T07:35:10;8.70;99.90
54168;DHT22;40072;50.958;3.592;2023-02-12T07:37:36;8.20;99.90
54168;DHT22;40072;50.958;3.592;2023-02-12T07:40:01;7.90;99.90
54168;DHT22;40072;50.958;3.592;2023-02-12T07:42:27;8.00;99.90
54168;DHT22;40072;50.958;3.592;2023-02-12T07:44:54;7.80;99.90
54168;DHT22;40072;50.958;3.592;2023-02-12T07:47:20;7.50;99.90
54168;DHT22;40072;50.958;3.592;2023-02-12T07:49:45;7.50;99.90
54168;DHT22;40072;50.958;3.592;2023-02-12T07:52:11;7.70;99.90
54168;DHT22;40072;50.958;3.592;2023-02-12T07:54:37;7.90;99.90
54168;DHT22;40072;50.958;3.592;2023-02-12T07:57:04;8.20;99.90
54168;DHT22;40072;50.958;3.592;2023-02-12T07:59:29;8.20;99.90
54168;DHT22;40072;50.958;3.592;2023-02-12T08:01:55;8.10;99.90
54168;DHT22;40072;50.958;3.592;2023-02-12T08:04:23;8.00;99.90
54168;DHT22;40072;50.958;3.592;2023-02-12T08:06:50;8.20;99.90
54168;DHT22;40072;50.958;3.592;2023-02-12T08:09:21;8.30;99.90
54168;DHT22;40072;50.958;3.592;2023-02-12T08:11:47;8.40;99.90
54168;DHT22;40072;50.958;3.592;2023-02-12T08:14:15;8.50;99.90
54168;DHT22;40072;50.958;3.592;2023-02-12T08:16:42;8.60;99.90
54168;DHT22;40072;50.958;3.592;2023-02-12T08:19:09;8.50;99.90
54168;DHT22;40072;50.958;3.592;2023-02-12T08:21:35;8.50;99.90
54168;DHT22;40072;50.958;3.592;2023-02-12T08:24:00;8.60;99.90
54168;DHT22;40072;50.958;3.592;2023-02-12T08:26:32;8.80;99.90
54168;DHT22;40072;50.958;3.592;2023-02-12T08:29:07;8.90;99.90
54168;DHT22;40072;50.958;3.592;2023-02-12T08:31:36;8.90;99.90
54168;DHT22;40072;50.958;3.592;2023-02-12T08:34:03;8.90;99.90
54168;DHT22;40072;50.958;3.592;2023-02-12T08:36:36;8.80;99.90
54168;DHT22;40072;50.958;3.592;2023-02-12T08:39:03;8.90;99.90
54168;DHT22;40072;50.958;3.592;2023-02-12T08:41:29;8.90;99.90
54168;DHT22;40072;50.958;3.592;2023-02-12T08:43:57;9.00;99.90
54168;DHT22;40072;50.958;3.592;2023-02-12T08:46:35;9.10;99.90
54168;DHT22;40072;50.958;3.592;2023-02-12T08:49:07;9.00;99.90
54168;DHT22;40072;50.958;3.592;2023-02-12T08:51:38;8.90;99.90
54168;DHT22;40072;50.958;3.592;2023-02-12T08:54:06;8.90;99.90
54168;DHT22;40072;50.958;3.592;2023-02-12T08:56:33;9.10;99.90
54168;DHT22;40072;50.958;3.592;2023-02-12T08:59:01;9.40;99.90
54168;DHT22;40072;50.958;3.592;2023-02-12T09:01:30;9.30;99.90
54168;DHT22;40072;50.958;3.592;2023-02-12T09:03:56;9.00;99.90
54168;DHT22;40072;50.958;3.592;2023-02-12T09:06:23;8.70;99.90
54168;DHT22;40072;50.958;3.592;2023-02-12T09:08:50;8.70;99.90
54168;DHT22;40072;50.958;3.592;2023-02-12T09:11:18;8.90;99.90
54168;DHT22;40072;50.958;3.592;2023-02-12T09:13:46;9.00;99.90
54168;DHT22;40072;50.958;3.592;2023-02-12T09:16:13;8.90;99.90
54168;DHT22;40072;50.958;3.592;2023-02-12T09:18:39;8.80;99.90
54168;DHT22;40072;50.958;3.592;2023-02-12T09:21:10;8.50;99.90
54168;DHT22;40072;50.958;3.592;2023-02-12T09:23:37;8.30;99.90
54168;DHT22;40072;50.958;3.592;2023-02-12T09:26:08;8.50;99.90
54168;DHT22;40072;50.958;3.592;2023-02-12T09:28:34;8.40;99.90
54168;DHT22;40072;50.958;3.592;2023-02-12T09:31:08;8.30;99.90
54168;DHT22;40072;50.958;3.592;2023-02-12T09:33:35;8.40;99.90
54168;DHT22;40072;50.958;3.592;2023-02-12T09:36:06;8.40;99.90
54168;DHT22;40072;50.958;3.592;2023-02-12T09:38:33;8.80;99.90
54168;DHT22;40072;50.958;3.592;2023-02-12T09:41:31;9.10;99.90
54168;DHT22;40072;50.958;3.592;2023-02-12T09:47:08;9.20;99.90
54168;DHT22;40072;50.958;3.592;2023-02-12T09:52:44;9.10;99.90
54168;DHT22;40072;50.958;3.592;2023-02-12T09:55:15;9.40;99.90
54168;DHT22;40072;50.958;3.592;2023-02-12T09:57:42;9.40;99.90
54168;DHT22;40072;50.958;3.592;2023-02-12T10:00:14;9.70;99.90
54168;DHT22;40072;50.958;3.592;2023-02-12T10:02:40;9.50;99.90
54168;DHT22;40072;50.958;3.592;2023-02-12T10:05:19;9.70;99.90
54168;DHT22;40072;50.958;3.592;2023-02-12T10:24:47;9.40;99.90
54168;DHT22;40072;50.958;3.592;2023-02-12T10:27:19;9.10;99.90
54168;DHT22;40072;50.958;3.592;2023-02-12T10:29:48;9.00;99.90
54168;DHT22;40072;50.958;3.592;2023-02-12T10:32:28;8.70;99.90
54168;DHT22;40072;50.958;3.592;2023-02-12T10:34:56;8.50;99.90
54168;DHT22;40072;50.958;3.592;2023-02-12T10:40:29;9.50;99.90
54168;DHT22;40072;50.958;3.592;2023-02-12T10:42:58;10.10;99.90
54168;DHT22;40072;50.958;3.592;2023-02-12T10:45:35;10.50;99.90
54168;DHT22;40072;50.958;3.592;2023-02-12T10:48:10;9.60;99.90
54168;DHT22;40072;50.958;3.592;2023-02-12T10:51:02;9.50;99.90
54168;DHT22;40072;50.958;3.592;2023-02-12T10:53:44;9.60;99.90
54168;DHT22;40072;50.958;3.592;2023-02-12T10:58:57;9.50;99.90
54168;DHT22;40072;50.958;3.592;2023-02-12T11:01:37;9.50;99.90
54168;DHT22;40072;50.958;3.592;2023-02-12T11:04:36;9.20;99.90
54168;DHT22;40072;50.958;3.592;2023-02-12T11:07:07;9.20;99.90
54168;DHT22;40072;50.958;3.592;2023-02-12T11:09:53;9.20;99.90
54168;DHT22;40072;50.958;3.592;2023-02-12T11:12:35;9.20;99.90
54168;DHT22;40072;50.958;3.592;2023-02-12T11:15:19;9.10;99.90
54168;DHT22;40072;50.958;3.592;2023-02-12T11:18:00;8.90;99.90
54168;DHT22;40072;50.958;3.592;2023-02-12T11:20:27;9.00;99.90
54168;DHT22;40072;50.958;3.592;2023-02-12T11:25:22;9.50;99.90
54168;DHT22;40072;50.958;3.592;2023-02-12T11:28:17;9.70;99.90
54168;DHT22;40072;50.958;3.592;2023-02-12T11:30:58;9.90;99.90
54168;DHT22;40072;50.958;3.592;2023-02-12T11:33:35;9.90;99.90
54168;DHT22;40072;50.958;3.592;2023-02-12T11:36:16;10.20;99.90
54168;DHT22;40072;50.958;3.592;2023-02-12T11:38:50;10.20;99.90
54168;DHT22;40072;50.958;3.592;2023-02-12T11:41:27;10.30;99.90
54168;DHT22;40072;50.958;3.592;2023-02-12T11:43:54;10.60;99.90
54168;DHT22;40072;50.958;3.592;2023-02-12T11:46:23;10.90;99.90
54168;DHT22;40072;50.958;3.592;2023-02-12T11:48:51;11.00;99.90
54168;DHT22;40072;50.958;3.592;2023-02-12T11:51:25;10.60;99.90
54168;DHT22;40072;50.958;3.592;2023-02-12T11:53:56;10.60;99.90
54168;DHT22;40072;50.958;3.592;2023-02-12T11:56:23;10.90;99.90
54168;DHT22;40072;50.958;3.592;2023-02-12T11:58:50;11.20;99.90
54168;DHT22;40072;50.958;3.592;2023-02-12T12:01:33;11.00;99.90
54168;DHT22;40072;50.958;3.592;2023-02-12T12:04:10;11.20;99.90
54168;DHT22;40072;50.958;3.592;2023-02-12T12:06:41;11.70;99.90
54168;DHT22;40072;50.958;3.592;2023-02-12T12:14:28;11.70;99.90
54168;DHT22;40072;50.958;3.592;2023-02-12T12:17:23;12.00;99.90
54168;DHT22;40072;50.958;3.592;2023-02-12T12:20:21;12.00;99.90
54168;DHT22;40072;50.958;3.592;2023-02-12T12:22:53;11.60;99.90
54168;DHT22;40072;50.958;3.592;2023-02-12T12:25:30;11.70;99.90
54168;DHT22;40072;50.958;3.592;2023-02-12T12:28:10;11.80;99.90
54168;DHT22;40072;50.958;3.592;2023-02-12T12:31:16;12.00;99.90
54168;DHT22;40072;50.958;3.592;2023-02-12T12:34:19;12.20;99.20
54168;DHT22;40072;50.958;3.592;2023-02-12T12:45:34;11.90;99.70
54168;DHT22;40072;50.958;3.592;2023-02-12T12:54:07;12.50;99.20
54168;DHT22;40072;50.958;3.592;2023-02-12T12:59:36;10.40;99.90
54168;DHT22;40072;50.958;3.592;2023-02-12T13:08:11;10.20;99.90
54168;DHT22;40072;50.958;3.592;2023-02-12T13:10:59;10.50;99.90
54168;DHT22;40072;50.958;3.592;2023-02-12T13:13:40;10.60;99.90
54168;DHT22;40072;50.958;3.592;2023-02-12T13:21:54;12.70;98.90
54168;DHT22;40072;50.958;3.592;2023-02-12T13:24:44;12.60;98.60
54168;DHT22;40072;50.958;3.592;2023-02-12T13:27:19;12.00;98.20
54168;DHT22;40072;50.958;3.592;2023-02-12T13:29:51;11.30;99.90
54168;DHT22;40072;50.958;3.592;2023-02-12T13:32:50;11.50;99.90
54168;DHT22;40072;50.958;3.592;2023-02-12T13:35:22;11.90;99.90
54168;DHT22;40072;50.958;3.592;2023-02-12T13:37:53;11.80;99.80
54168;DHT22;40072;50.958;3.592;2023-02-12T13:40:26;11.70;99.90
54168;DHT22;40072;50.958;3.592;2023-02-12T13:45:54;12.20;99.90
54168;DHT22;40072;50.958;3.592;2023-02-12T13:51:44;11.70;99.90
54168;DHT22;40072;50.958;3.592;2023-02-12T13:57:15;12.10;99.40
54168;DHT22;40072;50.958;3.592;2023-02-12T13:59:55;11.80;99.70
54168;DHT22;40072;50.958;3.592;2023-02-12T14:05:02;10.80;99.90
54168;DHT22;40072;50.958;3.592;2023-02-12T14:07:53;10.30;99.90
54168;DHT22;40072;50.958;3.592;2023-02-12T14:10:29;10.50;99.90
54168;DHT22;40072;50.958;3.592;2023-02-12T14:13:15;10.60;99.90
54168;DHT22;40072;50.958;3.592;2023-02-12T14:15:44;10.70;99.90
54168;DHT22;40072;50.958;3.592;2023-02-12T14:18:29;10.50;99.90
54168;DHT22;40072;50.958;3.592;2023-02-12T14:23:40;10.60;99.90
54168;DHT22;40072;50.958;3.592;2023-02-12T14:26:11;10.70;99.90
54168;DHT22;40072;50.958;3.592;2023-02-12T14:33:44;10.90;99.90
54168;DHT22;40072;50.958;3.592;2023-02-12T14:41:21;11.40;99.90
54168;DHT22;40072;50.958;3.592;2023-02-12T14:54:42;11.20;99.90
54168;DHT22;40072;50.958;3.592;2023-02-12T14:57:35;11.10;99.90
54168;DHT22;40072;50.958;3.592;2023-02-12T15:02:48;10.80;99.90
54168;DHT22;40072;50.958;3.592;2023-02-12T15:05:28;10.50;99.90
54168;DHT22;40072;50.958;3.592;2023-02-12T15:08:14;10.60;99.90
54168;DHT22;40072;50.958;3.592;2023-02-12T15:10:54;10.40;99.90
54168;DHT22;40072;50.958;3.592;2023-02-12T15:18:57;10.40;99.90
54168;DHT22;40072;50.958;3.592;2023-02-12T15:21:24;10.10;99.90
54168;DHT22;40072;50.958;3.592;2023-02-12T15:24:13;9.60;99.90
54168;DHT22;40072;50.958;3.592;2023-02-12T15:26:51;9.40;99.90
54168;DHT22;40072;50.958;3.592;2023-02-12T15:32:07;10.00;99.90
54168;DHT22;40072;50.958;3.592;2023-02-12T15:34:36;10.10;99.90
54168;DHT22;40072;50.958;3.592;2023-02-12T15:37:07;10.30;99.90
54168;DHT22;40072;50.958;3.592;2023-02-12T15:39:40;10.30;99.90
54168;DHT22;40072;50.958;3.592;2023-02-12T15:42:30;10.30;99.90
54168;DHT22;40072;50.958;3.592;2023-02-12T15:47:41;10.10;99.90
54168;DHT22;40072;50.958;3.592;2023-02-12T15:50:16;10.10;99.90
54168;DHT22;40072;50.958;3.592;2023-02-12T15:52:44;10.00;99.90
54168;DHT22;40072;50.958;3.592;2023-02-12T15:55:16;9.80;99.90
54168;DHT22;40072;50.958;3.592;2023-02-12T15:57:47;9.60;99.90
54168;DHT22;40072;50.958;3.592;2023-02-12T16:02:51;9.60;99.90
54168;DHT22;40072;50.958;3.592;2023-02-12T16:05:17;9.80;99.90
54168;DHT22;40072;50.958;3.592;2023-02-12T16:07:44;10.00;99.90
54168;DHT22;40072;50.958;3.592;2023-02-12T16:10:17;10.00;99.90
54168;DHT22;40072;50.958;3.592;2023-02-12T16:12:43;9.80;99.90
54168;DHT22;40072;50.958;3.592;2023-02-12T16:15:31;9.80;99.90
54168;DHT22;40072;50.958;3.592;2023-02-12T16:17:58;9.90;99.90
54168;DHT22;40072;50.958;3.592;2023-02-12T16:20:28;9.80;99.90
54168;DHT22;40072;50.958;3.592;2023-02-12T16:22:55;9.70;99.90
54168;DHT22;40072;50.958;3.592;2023-02-12T16:25:24;9.60;99.90
54168;DHT22;40072;50.958;3.592;2023-02-12T16:28:01;9.20;99.90
54168;DHT22;40072;50.958;3.592;2023-02-12T16:30:36;9.00;99.90
54168;DHT22;40072;50.958;3.592;2023-02-12T16:33:04;9.10;99.90
54168;DHT22;40072;50.958;3.592;2023-02-12T16:35:32;9.20;99.90
54168;DHT22;40072;50.958;3.592;2023-02-12T16:43:36;9.20;99.90
54168;DHT22;40072;50.958;3.592;2023-02-12T16:46:04;9.10;99.90
54168;DHT22;40072;50.958;3.592;2023-02-12T16:48:36;9.00;99.90
54168;DHT22;40072;50.958;3.592;2023-02-12T16:51:02;9.10;99.90
54168;DHT22;40072;50.958;3.592;2023-02-12T16:55:57;8.90;99.90
54168;DHT22;40072;50.958;3.592;2023-02-12T16:58:23;8.90;99.90
54168;DHT22;40072;50.958;3.592;2023-02-12T17:00:51;9.10;99.90
54168;DHT22;40072;50.958;3.592;2023-02-12T17:03:18;9.20;99.90
54168;DHT22;40072;50.958;3.592;2023-02-12T17:05:44;9.00;99.90
54168;DHT22;40072;50.958;3.592;2023-02-12T17:08:16;9.00;99.90
54168;DHT22;40072;50.958;3.592;2023-02-12T17:10:43;9.10;99.90
54168;DHT22;40072;50.958;3.592;2023-02-12T17:13:12;9.30;99.90
54168;DHT22;40072;50.958;3.592;2023-02-12T17:15:46;9.40;99.90
54168;DHT22;40072;50.958;3.592;2023-02-12T17:18:14;9.10;99.90
54168;DHT22;40072;50.958;3.592;2023-02-12T17:20:39;9.20;99.90
54168;DHT22;40072;50.958;3.592;2023-02-12T17:23:06;9.10;99.90
54168;DHT22;40072;50.958;3.592;2023-02-12T17:25:32;9.10;99.90
54168;DHT22;40072;50.958;3.592;2023-02-12T17:27:59;9.30;99.90
54168;DHT22;40072;50.958;3.592;2023-02-12T17:30:24;9.30;99.90
54168;DHT22;40072;50.958;3.592;2023-02-12T17:32:51;9.20;99.90
54168;DHT22;40072;50.958;3.592;2023-02-12T17:35:17;9.60;99.90
54168;DHT22;40072;50.958;3.592;2023-02-12T17:37:42;9.60;99.90
54168;DHT22;40072;50.958;3.592;2023-02-12T17:40:08;9.30;99.90
54168;DHT22;40072;50.958;3.592;2023-02-12T17:42:36;9.20;99.90
54168;DHT22;40072;50.958;3.592;2023-02-12T17:45:02;9.40;99.90
54168;DHT22;40072;50.958;3.592;2023-02-12T17:47:27;9.30;99.90
54168;DHT22;40072;50.958;3.592;2023-02-12T17:49:54;9.30;99.90
54168;DHT22;40072;50.958;3.592;2023-02-12T17:52:20;9.10;99.90
54168;DHT22;40072;50.958;3.592;2023-02-12T17:54:46;9.20;99.90
54168;DHT22;40072;50.958;3.592;2023-02-12T17:57:12;9.10;99.90
54168;DHT22;40072;50.958;3.592;2023-02-12T17:59:39;9.20;99.90
54168;DHT22;40072;50.958;3.592;2023-02-12T18:02:06;9.20;99.90
54168;DHT22;40072;50.958;3.592;2023-02-12T18:04:32;9.10;99.90
54168;DHT22;40072;50.958;3.592;2023-02-12T18:07:00;9.20;99.90
54168;DHT22;40072;50.958;3.592;2023-02-12T18:09:26;9.00;99.90
54168;DHT22;40072;50.958;3.592;2023-02-12T18:11:52;8.70;99.90
54168;DHT22;40072;50.958;3.592;2023-02-12T18:14:18;8.70;99.90
54168;DHT22;40072;50.958;3.592;2023-02-12T18:16:43;8.60;99.90
54168;DHT22;40072;50.958;3.592;2023-02-12T18:19:09;8.80;99.90
54168;DHT22;40072;50.958;3.592;2023-02-12T18:21:35;8.90;99.90
54168;DHT22;40072;50.958;3.592;2023-02-12T18:24:01;8.90;99.90
54168;DHT22;40072;50.958;3.592;2023-02-12T18:26:27;9.30;99.90
54168;DHT22;40072;50.958;3.592;2023-02-12T18:28:52;9.10;99.90
54168;DHT22;40072;50.958;3.592;2023-02-12T18:31:18;8.80;99.90
54168;DHT22;40072;50.958;3.592;2023-02-12T18:33:44;8.80;99.90
54168;DHT22;40072;50.958;3.592;2023-02-12T18:36:13;9.10;99.90
54168;DHT22;40072;50.958;3.592;2023-02-12T18:38:40;9.00;99.90
54168;DHT22;40072;50.958;3.592;2023-02-12T18:41:19;8.80;99.90
54168;DHT22;40072;50.958;3.592;2023-02-12T18:43:45;8.90;99.90
54168;DHT22;40072;50.958;3.592;2023-02-12T18:46:17;9.00;99.90
54168;DHT22;40072;50.958;3.592;2023-02-12T18:48:43;8.90;99.90
54168;DHT22;40072;50.958;3.592;2023-02-12T18:51:13;9.20;99.90
54168;DHT22;40072;50.958;3.592;2023-02-12T18:53:39;9.20;99.90
54168;DHT22;40072;50.958;3.592;2023-02-12T18:56:07;9.20;99.90